Flight Track Log - Related Links

Times and Time Zones

All times are in EDT time to prevent confusion due to time zone crossing. See the N6345B flight status page for this flight to view local times or setup timezone preferences in your user account.

Time Position Orientation Groundspeed Altitude Reporting Facility
EDT Latitude Longitude Course Direction KTS MPH feet Rate Location/Type
Tue 03:36:47 PM 29.1822 -81.0517 68° East 61 70 300  Level Jacksonville Center
Tue 03:37:18 PM 29.1864 -81.0397 68° East 76 87 700 655 Climbing Jacksonville Center
Tue 03:38:37 PM 29.2175 -81.0272 19° North 92 106 1,500 557 Climbing Jacksonville Center
Tue 03:39:38 PM 29.2425 -81.0197 15° North 93 107 2,000 641 Climbing Jacksonville Center
Tue 03:40:20 PM 29.2611 -81.0217 355° North 98 113 2,600 574 Climbing Jacksonville Center
Tue 03:41:33 PM 29.2844 -81.0428 322° Northwest 99 114 3,100 179 Climbing Jacksonville Center
Tue 03:42:34 PM 29.3097 -81.0661 321° Northwest 109 125 3,000 55 Descending Jacksonville Center
Tue 03:43:23 PM 29.3289 -81.0847 320° Northwest 106 122 3,200 404 Climbing Jacksonville Center
Tue 03:44:18 PM 29.3500 -81.0986 330° Northwest 97 112 3,700 520 Climbing Jacksonville Center
Tue 03:45:30 PM 29.3753 -81.1219 321° Northwest 97 112 4,300 472 Climbing Jacksonville Center
Tue 03:46:25 PM 29.3983 -81.1311 341° North 96 110 4,700 382 Climbing Jacksonville Center
Tue 03:47:20 PM 29.4214 -81.1378 346° North 98 113 5,000 164 Climbing Jacksonville Center
Tue 03:48:15 PM 29.4508 -81.1444 349° North 109 125 5,000  Level Jacksonville Center
Tue 03:49:15 PM 29.4781 -81.1511 348° North 106 122 5,000  Level Jacksonville Center
Tue 03:50:16 PM 29.5072 -81.1553 353° North 101 116 5,000  Level Jacksonville Center
Tue 03:51:29 PM 29.5428 -81.1594 354° North 102 117 5,000  Level Jacksonville Center
Tue 03:52:30 PM 29.5700 -81.1661 348° North 101 116 5,000  Level Jacksonville Center
Tue 03:53:24 PM 29.5953 -81.1731 347° North 102 117 5,000  Level Jacksonville Center
Tue 03:54:19 PM 29.6203 -81.1747 357° North 103 119 5,000  Level Jacksonville Center
Tue 03:55:13 PM 29.6453 -81.1792 351° North 106 122 5,000  Level Jacksonville Center
Tue 03:56:26 PM 29.6811 -81.1881 348° North 105 121 5,000  Level Jacksonville Center
Tue 03:57:27 PM 29.7103 -81.1900 357° North 103 119 5,000 -48 Level Jacksonville Center
Tue 03:58:32 PM 29.7417 -81.1992 346° North 103 119 4,900 -45 Descending Jacksonville Center
Tue 03:59:39 PM 29.7731 -81.2033 353° North 104 120 4,900  Level Jacksonville Center
Tue 04:00:40 PM 29.8025 -81.2100 349° North 102 117 4,900 58 Level Jacksonville Center
Tue 04:01:23 PM 29.8233 -81.2144 350° North 99 114 5,000 55 Climbing Jacksonville Center
Tue 04:02:30 PM 29.8547 -81.2161 357° North 103 119 5,000  Level Jacksonville Center
Tue 04:03:31 PM 29.8819 -81.2253 344° North 103 119 5,000  Level Jacksonville Center
Tue 04:04:32 PM 29.9092 -81.2272 356° North 103 119 5,000  Level Jacksonville Center
Tue 04:05:27 PM 29.9364 -81.2364 344° North 104 120 5,000  Level Jacksonville Center
Tue 04:06:33 PM 29.9697 -81.2406 354° North 108 124 5,000  Level Jacksonville Center
Tue 04:07:34 PM 29.9992 -81.2472 349° North 106 122 5,000  Level Jacksonville Center
Tue 04:08:29 PM 30.0264 -81.2517 352° North 110 127 5,000  Level Jacksonville Center
Tue 04:09:30 PM 30.0536 -81.2561 352° North 105 121 5,000  Level Jacksonville Center
Tue 04:10:30 PM 30.0828 -81.2603 353° North 108 124 5,000  Level Jacksonville Center
Tue 04:11:31 PM 30.1122 -81.2669 349° North 106 122 5,000  Level Jacksonville Center
Tue 04:12:32 PM 30.1414 -81.2736 349° North 108 124 5,000  Level Jacksonville Center
Tue 04:13:33 PM 30.1728 -81.2803 350° North 107 123 5,000  Level Jacksonville Center
Tue 04:14:34 PM 30.2042 -81.2847 353° North 108 124 5,000  Level Jacksonville Center
Tue 04:15:28 PM 30.2294 -81.2914 347° North 110 127 5,000  Level Jacksonville Center
Tue 04:16:35 PM 30.2606 -81.2958 353° North 106 122 5,000  Level Jacksonville Center
Tue 04:17:42 PM 30.2922 -81.3025 350° North 101 116 5,000  Level Jacksonville Center
Tue 04:18:49 PM 30.3256 -81.3092 350° North 104 120 5,000  Level Jacksonville Center
Tue 04:19:50 PM 30.3528 -81.3158 348° North 105 121 5,000  Level Jacksonville Center
Tue 04:20:45 PM 30.3800 -81.3178 356° North 104 120 5,000  Level Jacksonville Center
Tue 04:21:40 PM 30.4050 -81.3247 347° North 105 121 5,000  Level Jacksonville Center
Tue 04:22:40 PM 30.4344 -81.3289 353° North 106 122 5,000  Level Jacksonville Center
Tue 04:23:47 PM 30.4678 -81.3333 353° North 104 120 5,000  Level Jacksonville Center
Tue 04:24:42 PM 30.4950 -81.3425 344° North 107 123 5,000  Level Jacksonville Center
Tue 04:25:43 PM 30.5244 -81.3467 353° North 107 123 5,000  Level Jacksonville Center
Tue 04:26:44 PM 30.5517 -81.3536 348° North 101 116 5,000  Level Jacksonville Center
Tue 04:27:45 PM 30.5808 -81.3581 353° North 103 119 5,000  Level Jacksonville Center
Tue 04:28:46 PM 30.6081 -81.3647 348° North 103 119 5,000  Level Jacksonville Center
Tue 04:29:46 PM 30.6375 -81.3692 353° North 104 120 5,000 -41 Level Jacksonville Center
Tue 04:31:13 PM 30.6772 -81.3758 352° North 108 124 4,900 -41 Descending Jacksonville Center
Tue 04:32:13 PM 30.7064 -81.3825 349° North 103 119 4,900  Level Jacksonville Center
Tue 04:33:13 PM 30.7336 -81.3869 352° North 103 119 4,900  Level Jacksonville Center
Tue 04:34:13 PM 30.7650 -81.3936 350° North 103 119 4,900  Level Jacksonville Center
Tue 04:35:13 PM 30.7922 -81.4006 348° North 103 119 4,900 -250 Level Jacksonville Center
Tue 04:36:13 PM 30.8217 -81.4047 353° North 103 119 4,400 -500 Descending Jacksonville Center
Tue 04:37:13 PM 30.8489 -81.4092 352° North 103 119 3,900 -500 Descending Jacksonville Center
Tue 04:38:13 PM 30.8781 -81.4161 348° North 103 119 3,400 -500 Descending Jacksonville Center
Tue 04:39:13 PM 30.9053 -81.4206 352° North 103 119 2,900 -250 Descending Jacksonville Center
Tue 04:40:13 PM 30.9325 -81.4272 348° North 103 119 2,900  Level Jacksonville Center
Tue 04:41:13 PM 30.9617 -81.4317 353° North 103 119 2,900  Level Jacksonville Center
Tue 04:42:13 PM 30.9869 -81.4361 351° North 103 119 2,900  Level Jacksonville Center

Login

Don't have an account? Register now (free) for customized features, flight alerts, and more!